createdAt,value
2019-06-04T00:00:32.352Z,2.30
2019-06-04T00:01:32.359Z,2.30
2019-06-04T00:02:32.360Z,2.70
2019-06-04T00:03:32.357Z,2.40
2019-06-04T00:04:32.360Z,2.10
2019-06-04T00:05:32.359Z,2.20
2019-06-04T00:06:32.363Z,2.20
2019-06-04T00:07:32.362Z,2.50
2019-06-04T00:08:32.362Z,2.40
2019-06-04T00:09:32.382Z,2.40
2019-06-04T00:10:32.368Z,2.20
2019-06-04T00:11:32.367Z,2.10
2019-06-04T00:12:32.372Z,2.40
2019-06-04T00:13:32.369Z,2.40
2019-06-04T00:14:32.372Z,2.50
2019-06-04T00:15:32.375Z,2.50
2019-06-04T00:16:32.373Z,2.60
2019-06-04T00:17:32.375Z,2.30
2019-06-04T00:18:32.375Z,2.70
2019-06-04T00:19:32.380Z,2.70
2019-06-04T00:20:32.379Z,2.40
2019-06-04T00:21:32.383Z,2.50
2019-06-04T00:22:32.383Z,2.40
2019-06-04T00:23:32.382Z,2.40
2019-06-04T00:24:32.382Z,2.50
2019-06-04T00:25:32.418Z,2.10
2019-06-04T00:26:32.388Z,2.50
2019-06-04T00:27:32.388Z,2.30
2019-06-04T00:28:32.391Z,2.10
2019-06-04T00:29:32.398Z,2.30
2019-06-04T00:30:32.389Z,2.30
2019-06-04T00:31:35.239Z,2.30
2019-06-04T00:32:32.396Z,2.40
2019-06-04T00:33:32.393Z,2.30
2019-06-04T00:34:32.394Z,2.30
2019-06-04T00:35:32.399Z,2.50
2019-06-04T00:36:32.399Z,2.60
2019-06-04T00:37:32.400Z,2.50
2019-06-04T00:38:32.404Z,2.60
2019-06-04T00:39:32.410Z,2.80
2019-06-04T00:40:32.409Z,2.40
2019-06-04T00:41:32.410Z,2.30
2019-06-04T00:42:32.407Z,2.40
2019-06-04T00:43:32.407Z,2.30
2019-06-04T00:44:32.414Z,2.30
2019-06-04T00:45:32.417Z,2.10
2019-06-04T00:46:32.412Z,2.20
2019-06-04T00:47:32.419Z,2.40
2019-06-04T00:48:32.412Z,2.40
2019-06-04T00:49:32.421Z,2.30
2019-06-04T00:50:32.416Z,2.60
2019-06-04T00:51:32.420Z,2.10
2019-06-04T00:52:32.420Z,2.30
2019-06-04T00:53:32.421Z,2.40
2019-06-04T00:54:32.420Z,2.20
2019-06-04T00:55:32.423Z,2.30
2019-06-04T00:56:32.431Z,2.50
2019-06-04T00:57:32.465Z,2.30
2019-06-04T00:58:32.426Z,2.40
2019-06-04T00:59:32.425Z,2.50
2019-06-04T01:00:32.433Z,2.50
2019-06-04T01:01:32.438Z,2.00
2019-06-04T01:02:32.436Z,2.30
2019-06-04T01:03:32.448Z,2.20
2019-06-04T01:04:32.442Z,2.30
2019-06-04T01:05:32.436Z,2.40
2019-06-04T01:06:32.434Z,2.20
2019-06-04T01:07:32.436Z,2.20
2019-06-04T01:08:32.434Z,2.10
2019-06-04T01:09:32.446Z,2.20
2019-06-04T01:10:32.450Z,2.30
2019-06-04T01:11:32.438Z,2.40
2019-06-04T01:12:32.441Z,2.10
2019-06-04T01:13:32.440Z,2.50
2019-06-04T01:14:32.443Z,2.60
2019-06-04T01:15:32.442Z,2.50
2019-06-04T01:16:32.445Z,2.60
2019-06-04T01:17:32.449Z,3.00
2019-06-04T01:18:32.451Z,2.50
2019-06-04T01:19:32.452Z,2.70
2019-06-04T01:20:32.459Z,2.60
2019-06-04T01:21:32.452Z,2.50
2019-06-04T01:22:32.452Z,2.30
2019-06-04T01:23:32.452Z,2.70
2019-06-04T01:24:32.452Z,2.30
2019-06-04T01:25:32.455Z,2.40
2019-06-04T01:26:32.461Z,2.40
2019-06-04T01:27:32.457Z,2.70
2019-06-04T01:28:32.460Z,3.90
2019-06-04T01:29:32.464Z,2.60
2019-06-04T01:30:32.460Z,2.20
2019-06-04T01:31:32.467Z,2.40
2019-06-04T01:32:32.463Z,2.70
2019-06-04T01:33:40.050Z,2.40
2019-06-04T01:34:32.475Z,2.20
2019-06-04T01:35:32.458Z,2.50
2019-06-04T01:36:32.474Z,2.60
2019-06-04T01:37:32.469Z,2.00
2019-06-04T01:38:32.470Z,2.40
2019-06-04T01:39:32.469Z,2.50
2019-06-04T01:40:32.470Z,2.50
2019-06-04T01:41:32.471Z,2.70
2019-06-04T01:42:32.470Z,2.30
2019-06-04T01:43:32.473Z,2.30
2019-06-04T01:44:32.472Z,2.50
2019-06-04T01:45:32.474Z,2.70
2019-06-04T01:46:32.472Z,2.50
2019-06-04T01:47:32.472Z,2.60
2019-06-04T01:48:32.473Z,2.50
2019-06-04T01:49:32.481Z,2.20
2019-06-04T01:50:32.476Z,2.70
2019-06-04T01:51:32.478Z,2.50
2019-06-04T01:52:32.478Z,2.80
2019-06-04T01:53:32.486Z,2.80
2019-06-04T01:54:32.485Z,2.30
2019-06-04T01:55:32.481Z,2.50
2019-06-04T01:56:32.483Z,2.60
2019-06-04T01:57:32.486Z,2.40
2019-06-04T01:58:32.484Z,2.30
2019-06-04T01:59:32.487Z,2.40
2019-06-04T02:00:32.489Z,2.30
2019-06-04T02:01:32.487Z,2.20
2019-06-04T02:02:34.043Z,2.40
2019-06-04T02:03:32.490Z,2.50
2019-06-04T02:04:32.493Z,2.70
2019-06-04T02:05:32.493Z,2.40
2019-06-04T02:06:32.493Z,2.60
2019-06-04T02:07:32.493Z,3.00
2019-06-04T02:08:32.495Z,2.60
2019-06-04T02:09:32.493Z,2.70
2019-06-04T02:10:32.500Z,2.40
2019-06-04T02:11:32.497Z,2.30
2019-06-04T02:12:32.499Z,2.80
2019-06-04T02:13:32.497Z,2.30
2019-06-04T02:14:32.500Z,2.30
2019-06-04T02:15:32.497Z,2.50
2019-06-04T02:16:32.502Z,2.70
2019-06-04T02:17:32.499Z,2.60
2019-06-04T02:18:32.501Z,2.70
2019-06-04T02:19:32.503Z,2.90
2019-06-04T02:20:32.511Z,2.80
2019-06-04T02:21:32.507Z,2.90
2019-06-04T02:22:32.504Z,2.70
2019-06-04T02:23:32.506Z,2.60
2019-06-04T02:24:32.513Z,3.20
2019-06-04T02:25:32.513Z,3.00
2019-06-04T02:26:32.505Z,2.90
2019-06-04T02:27:32.519Z,2.90
2019-06-04T02:28:32.515Z,3.30
2019-06-04T02:29:32.512Z,3.30
2019-06-04T02:30:32.512Z,2.90
2019-06-04T02:31:32.515Z,2.70
2019-06-04T02:33:00.891Z,2.60
2019-06-04T02:33:34.910Z,2.80
2019-06-04T02:34:32.513Z,3.00
2019-06-04T02:35:32.513Z,3.20
2019-06-04T02:36:32.528Z,3.20
2019-06-04T02:37:32.518Z,3.10
2019-06-04T02:38:32.524Z,3.00
2019-06-04T02:39:32.515Z,3.00
2019-06-04T02:40:32.521Z,3.20
2019-06-04T02:41:32.521Z,3.20
2019-06-04T02:42:32.524Z,3.10
2019-06-04T02:43:32.522Z,3.30
2019-06-04T02:44:32.524Z,3.20
2019-06-04T02:45:32.525Z,3.00
2019-06-04T02:46:32.529Z,3.40
2019-06-04T02:47:32.524Z,3.50
2019-06-04T02:48:32.528Z,3.00
2019-06-04T02:49:32.526Z,3.30
2019-06-04T02:50:32.531Z,3.10
2019-06-04T02:51:32.526Z,3.10
2019-06-04T02:52:32.528Z,2.90
2019-06-04T02:53:32.536Z,3.10
2019-06-04T02:54:32.532Z,3.10
2019-06-04T02:55:32.536Z,2.80
2019-06-04T02:56:32.532Z,3.00
2019-06-04T02:57:32.535Z,3.10
2019-06-04T02:58:32.541Z,3.50
2019-06-04T02:59:32.536Z,3.30
2019-06-04T03:00:32.536Z,2.80
2019-06-04T03:01:32.535Z,3.10
2019-06-04T03:02:32.546Z,3.30
2019-06-04T03:03:32.542Z,3.50
2019-06-04T03:04:32.537Z,3.10
2019-06-04T03:05:32.537Z,2.90
2019-06-04T03:06:32.538Z,3.70
2019-06-04T03:07:32.545Z,3.20
2019-06-04T03:08:32.549Z,2.70
2019-06-04T03:09:32.545Z,2.80
2019-06-04T03:10:36.619Z,3.20
2019-06-04T03:11:32.561Z,3.10
2019-06-04T03:12:32.573Z,3.30
2019-06-04T03:13:32.546Z,3.00
2019-06-04T03:14:32.551Z,3.00
2019-06-04T03:15:32.550Z,2.90
2019-06-04T03:16:32.553Z,3.80
2019-06-04T03:17:32.560Z,2.70
2019-06-04T03:18:32.551Z,2.80
2019-06-04T03:19:32.558Z,3.10
2019-06-04T03:20:32.553Z,3.10
2019-06-04T03:21:32.556Z,2.90
2019-06-04T03:22:32.561Z,2.90
2019-06-04T03:23:32.558Z,2.70
2019-06-04T03:24:32.556Z,2.70
2019-06-04T03:25:32.560Z,2.60
2019-06-04T03:26:32.562Z,2.90
2019-06-04T03:27:32.562Z,2.80
2019-06-04T03:28:32.558Z,3.10
2019-06-04T03:29:32.566Z,3.20
2019-06-04T03:30:32.571Z,2.40
2019-06-04T03:31:32.563Z,3.10
2019-06-04T03:32:32.567Z,3.00
2019-06-04T03:33:55.078Z,3.10
2019-06-04T03:34:32.567Z,3.30
2019-06-04T03:35:32.568Z,2.80
2019-06-04T03:36:32.572Z,2.90
2019-06-04T03:37:32.569Z,2.80
2019-06-04T03:38:32.570Z,2.80
2019-06-04T03:39:32.578Z,2.60
2019-06-04T03:40:32.570Z,2.80
2019-06-04T03:41:32.574Z,3.00
2019-06-04T03:42:32.587Z,2.80
2019-06-04T03:43:32.575Z,3.10
2019-06-04T03:44:32.574Z,3.10
2019-06-04T03:45:32.580Z,3.90
2019-06-04T03:46:32.580Z,3.10
2019-06-04T03:47:32.584Z,3.10
2019-06-04T03:48:32.580Z,2.80
2019-06-04T03:49:32.580Z,2.70
2019-06-04T03:50:32.584Z,2.90
2019-06-04T03:51:32.583Z,3.00
2019-06-04T03:52:32.585Z,2.90
2019-06-04T03:53:32.586Z,2.80
2019-06-04T03:54:32.588Z,2.70
2019-06-04T03:55:32.586Z,2.90
2019-06-04T03:56:32.588Z,3.10
2019-06-04T03:57:32.590Z,2.90
2019-06-04T03:58:32.623Z,3.10
2019-06-04T03:59:32.611Z,2.80
2019-06-04T04:00:32.591Z,3.10
2019-06-04T04:01:32.593Z,3.10
2019-06-04T04:02:32.607Z,2.80
2019-06-04T04:03:32.596Z,3.00
2019-06-04T04:04:32.594Z,2.90
2019-06-04T04:05:32.607Z,2.90
2019-06-04T04:06:32.598Z,2.90
2019-06-04T04:07:32.595Z,2.70
2019-06-04T04:08:32.604Z,2.80
2019-06-04T04:09:32.604Z,2.80
2019-06-04T04:10:32.613Z,2.80
2019-06-04T04:11:32.632Z,2.60
2019-06-04T04:12:32.607Z,3.90
2019-06-04T04:13:32.605Z,3.00
2019-06-04T04:14:32.607Z,3.20
2019-06-04T04:15:32.614Z,3.10
2019-06-04T04:16:32.609Z,2.90
2019-06-04T04:17:32.612Z,2.70
2019-06-04T04:18:32.611Z,2.60
2019-06-04T04:19:32.616Z,3.00
2019-06-04T04:20:32.611Z,3.00
2019-06-04T04:21:32.613Z,2.90
2019-06-04T04:22:32.620Z,3.00
2019-06-04T04:23:32.633Z,2.90
2019-06-04T04:24:32.621Z,2.90
2019-06-04T04:25:32.623Z,3.20
2019-06-04T04:26:32.621Z,3.10
2019-06-04T04:27:32.627Z,3.10
2019-06-04T04:28:32.621Z,2.70
2019-06-04T04:29:32.637Z,2.80
2019-06-04T04:30:32.627Z,2.60
2019-06-04T04:31:35.768Z,2.80
2019-06-04T04:32:32.629Z,2.80
2019-06-04T04:33:32.631Z,3.00
2019-06-04T04:34:36.630Z,2.70
2019-06-04T04:35:32.637Z,2.80
2019-06-04T04:36:32.637Z,3.20
2019-06-04T04:37:32.637Z,2.90
2019-06-04T04:38:32.633Z,2.80
2019-06-04T04:39:32.639Z,2.60
2019-06-04T04:40:32.659Z,3.40
2019-06-04T04:41:32.638Z,2.70
2019-06-04T04:42:32.643Z,3.20
2019-06-04T04:43:32.641Z,3.00
2019-06-04T04:44:32.676Z,2.90
2019-06-04T04:45:32.652Z,3.10
2019-06-04T04:46:32.699Z,3.30
2019-06-04T04:47:32.645Z,2.70
2019-06-04T04:48:32.649Z,3.10
2019-06-04T04:49:34.497Z,2.70
2019-06-04T04:50:32.652Z,2.80
2019-06-04T04:51:32.650Z,2.80
2019-06-04T04:52:32.653Z,2.80
2019-06-04T04:53:32.656Z,3.50
2019-06-04T04:54:32.659Z,2.60
2019-06-04T04:55:32.660Z,2.70
2019-06-04T04:56:36.259Z,2.40
2019-06-04T04:57:32.662Z,2.80
2019-06-04T04:58:32.661Z,2.40
2019-06-04T04:59:32.669Z,2.80
2019-06-04T05:00:32.664Z,2.60
2019-06-04T05:01:32.672Z,2.60
2019-06-04T05:02:32.671Z,2.50
2019-06-04T05:03:32.666Z,3.20
2019-06-04T05:04:47.937Z,2.50
2019-06-04T05:05:32.672Z,2.90
2019-06-04T05:06:32.670Z,2.70
2019-06-04T05:07:32.669Z,2.60
2019-06-04T05:08:32.670Z,2.80
2019-06-04T05:09:32.676Z,2.80
2019-06-04T05:10:32.676Z,2.80
2019-06-04T05:11:32.677Z,2.60
2019-06-04T05:12:32.680Z,3.30
2019-06-04T05:13:32.685Z,2.90
2019-06-04T05:14:32.684Z,3.00
2019-06-04T05:15:32.692Z,3.10
2019-06-04T05:16:32.686Z,2.90
2019-06-04T05:17:32.682Z,2.90
2019-06-04T05:18:32.709Z,3.20
2019-06-04T05:19:32.687Z,2.50
2019-06-04T05:20:32.691Z,2.80
2019-06-04T05:21:34.159Z,3.10
2019-06-04T05:22:32.692Z,2.60
2019-06-04T05:23:32.692Z,2.70
2019-06-04T05:24:32.698Z,2.60
2019-06-04T05:25:32.701Z,3.10
2019-06-04T05:26:32.899Z,3.00
2019-06-04T05:27:32.702Z,2.80
2019-06-04T05:28:32.707Z,2.80
2019-06-04T05:29:32.706Z,2.60
2019-06-04T05:30:36.402Z,2.30
2019-06-04T05:31:32.713Z,2.90
2019-06-04T05:32:32.715Z,2.50
2019-06-04T05:33:32.758Z,3.00
2019-06-04T05:34:32.758Z,3.10
2019-06-04T05:35:32.717Z,2.70
2019-06-04T05:36:32.761Z,2.70
2019-06-04T05:37:33.359Z,2.90
2019-06-04T05:38:32.972Z,2.60
2019-06-04T05:39:32.721Z,2.90
2019-06-04T05:40:33.138Z,2.40
2019-06-04T05:41:32.767Z,2.80
2019-06-04T05:42:32.921Z,2.60
2019-06-04T05:43:32.987Z,2.90
2019-06-04T05:44:32.786Z,2.50
2019-06-04T05:45:33.062Z,2.70
2019-06-04T05:46:33.330Z,2.70
2019-06-04T05:47:32.914Z,2.50
2019-06-04T05:48:33.350Z,2.90
2019-06-04T05:49:32.858Z,2.70
2019-06-04T05:50:33.171Z,2.60
2019-06-04T05:51:33.315Z,2.90
2019-06-04T05:52:33.185Z,2.80
2019-06-04T05:53:33.261Z,3.10
2019-06-04T05:54:33.029Z,3.00
2019-06-04T05:55:33.123Z,3.00
2019-06-04T05:56:33.368Z,2.90
2019-06-04T05:57:33.762Z,3.00
2019-06-04T05:58:33.194Z,3.20
2019-06-04T05:59:33.340Z,2.80
2019-06-04T06:00:33.384Z,3.00
2019-06-04T06:01:35.932Z,3.60
2019-06-04T06:02:33.315Z,2.60
2019-06-04T06:03:33.954Z,3.10
2019-06-04T06:04:33.308Z,2.90
2019-06-04T06:05:40.241Z,3.10
2019-06-04T06:06:33.302Z,2.90
2019-06-04T06:07:34.045Z,2.50
2019-06-04T06:08:34.020Z,2.40
2019-06-04T06:09:32.781Z,2.70
2019-06-04T06:10:34.097Z,2.60
2019-06-04T06:11:33.976Z,2.70
2019-06-04T06:12:33.950Z,3.10
2019-06-04T06:13:32.776Z,2.70
2019-06-04T06:14:34.168Z,2.60
2019-06-04T06:15:32.789Z,2.70
2019-06-04T06:16:33.044Z,3.00
2019-06-04T06:17:34.115Z,2.90
2019-06-04T06:18:34.129Z,2.90
2019-06-04T06:19:34.021Z,3.30
2019-06-04T06:20:32.793Z,2.80
2019-06-04T06:21:33.225Z,2.90
2019-06-04T06:22:32.799Z,3.30
2019-06-04T06:23:32.806Z,2.90
2019-06-04T06:24:33.142Z,2.70
2019-06-04T06:25:38.178Z,3.20
2019-06-04T06:26:33.208Z,3.30
2019-06-04T06:27:32.803Z,2.80
2019-06-04T06:28:32.814Z,3.30
2019-06-04T06:29:32.813Z,3.20
2019-06-04T06:30:32.897Z,3.40
2019-06-04T06:31:32.915Z,3.20
2019-06-04T06:32:32.934Z,3.10
2019-06-04T06:33:35.635Z,2.80
2019-06-04T06:34:37.024Z,2.80
2019-06-04T06:35:46.676Z,2.70
2019-06-04T06:36:33.009Z,2.50
2019-06-04T06:37:33.413Z,2.80
2019-06-04T06:38:52.751Z,2.60
2019-06-04T06:39:33.314Z,2.90
2019-06-04T06:40:33.475Z,2.60
2019-06-04T06:41:33.656Z,2.80
2019-06-04T06:42:33.545Z,3.00
2019-06-04T06:43:33.959Z,2.50
2019-06-04T06:44:33.678Z,2.90
2019-06-04T06:45:34.288Z,2.80
2019-06-04T06:46:34.992Z,2.80
2019-06-04T06:47:33.178Z,2.80
2019-06-04T06:48:33.005Z,2.60
2019-06-04T06:49:37.949Z,2.60
2019-06-04T06:50:33.199Z,2.90
2019-06-04T06:51:33.285Z,2.70
2019-06-04T06:52:33.269Z,3.20
2019-06-04T06:53:34.323Z,2.60
2019-06-04T06:54:36.354Z,2.80
2019-06-04T06:55:34.580Z,2.70
2019-06-04T06:56:34.389Z,2.70
2019-06-04T06:57:34.340Z,3.00
2019-06-04T06:58:35.525Z,2.60
2019-06-04T06:59:32.871Z,2.50
2019-06-04T07:00:33.683Z,2.40
2019-06-04T07:01:32.884Z,2.60
2019-06-04T07:02:34.189Z,2.90
2019-06-04T07:03:33.231Z,3.00
2019-06-04T07:04:33.918Z,2.70
2019-06-04T07:05:33.059Z,2.60
2019-06-04T07:06:33.999Z,3.00
2019-06-04T07:07:33.186Z,2.30
2019-06-04T07:08:34.315Z,2.40
2019-06-04T07:09:33.296Z,2.60
2019-06-04T07:10:32.905Z,2.60
2019-06-04T07:11:32.903Z,2.40
2019-06-04T07:12:32.908Z,2.60
2019-06-04T07:13:33.291Z,2.40
2019-06-04T07:14:32.912Z,2.80
2019-06-04T07:15:34.609Z,3.10
2019-06-04T07:16:33.081Z,3.70
2019-06-04T07:17:33.332Z,3.00
2019-06-04T07:18:33.887Z,2.80
2019-06-04T07:19:33.433Z,2.80
2019-06-04T07:20:33.598Z,3.40
2019-06-04T07:21:33.763Z,3.10
2019-06-04T07:22:33.578Z,2.80
2019-06-04T07:23:32.939Z,2.90
2019-06-04T07:24:33.827Z,2.80
2019-06-04T07:25:33.820Z,2.70
2019-06-04T07:26:33.722Z,3.00
2019-06-04T07:27:33.992Z,2.80
2019-06-04T07:28:33.375Z,2.70
2019-06-04T07:29:32.961Z,2.60
2019-06-04T07:30:34.006Z,2.90
2019-06-04T07:31:34.019Z,2.80
2019-06-04T07:32:34.212Z,2.80
2019-06-04T07:33:33.677Z,2.60
2019-06-04T07:34:34.482Z,2.70
2019-06-04T07:35:34.557Z,2.70
2019-06-04T07:36:34.390Z,2.50
2019-06-04T07:37:33.203Z,2.10
2019-06-04T07:38:33.495Z,2.50
2019-06-04T07:39:32.985Z,2.90
2019-06-04T07:40:32.987Z,2.40
2019-06-04T07:41:33.268Z,2.60
2019-06-04T07:42:32.994Z,2.70
2019-06-04T07:43:33.049Z,2.40
2019-06-04T07:44:33.002Z,2.80
2019-06-04T07:45:33.489Z,2.80
2019-06-04T07:46:33.155Z,2.90
2019-06-04T07:47:33.312Z,2.70
2019-06-04T07:48:37.186Z,2.80
2019-06-04T07:49:33.214Z,2.60
2019-06-04T07:50:33.801Z,2.60
2019-06-04T07:51:33.811Z,2.80
2019-06-04T07:52:33.673Z,3.10
2019-06-04T07:53:33.489Z,2.60
2019-06-04T07:54:33.499Z,2.80
2019-06-04T07:55:34.281Z,2.50
2019-06-04T07:56:33.751Z,3.10
2019-06-04T07:57:34.501Z,3.00
2019-06-04T07:58:34.018Z,3.10
2019-06-04T07:59:34.003Z,2.60
2019-06-04T08:00:34.201Z,2.60
2019-06-04T08:01:52.660Z,2.60
2019-06-04T08:02:34.204Z,2.30
2019-06-04T08:03:34.457Z,3.30
2019-06-04T08:04:35.034Z,2.10
2019-06-04T08:05:34.009Z,2.00
2019-06-04T08:06:50.712Z,2.10
2019-06-04T08:07:34.313Z,2.50
2019-06-04T08:08:35.447Z,2.30
2019-06-04T08:09:33.111Z,3.10
2019-06-04T08:10:33.114Z,2.40
2019-06-04T08:11:33.123Z,2.20
2019-06-04T08:12:33.219Z,1.80
2019-06-04T08:13:33.390Z,1.70
2019-06-04T08:14:33.952Z,1.90
2019-06-04T08:15:33.528Z,2.00
2019-06-04T08:16:33.612Z,3.10
2019-06-04T08:17:33.393Z,1.90
2019-06-04T08:18:33.646Z,1.90
2019-06-04T08:19:33.841Z,2.00
2019-06-04T08:20:33.728Z,3.10
2019-06-04T08:21:45.354Z,1.90
2019-06-04T08:22:33.625Z,1.50
2019-06-04T08:23:34.368Z,1.80
2019-06-04T08:24:33.869Z,1.90
2019-06-04T08:25:34.562Z,1.50
2019-06-04T08:26:34.194Z,1.60
2019-06-04T08:27:34.269Z,1.60
2019-06-04T08:28:34.252Z,2.80
2019-06-04T08:29:34.388Z,1.30
2019-06-04T08:30:34.262Z,1.60
2019-06-04T08:31:34.490Z,1.60
2019-06-04T08:32:35.706Z,2.20
2019-06-04T08:33:34.441Z,1.60
2019-06-04T08:34:34.524Z,1.40
2019-06-04T08:35:34.843Z,2.20
2019-06-04T08:36:34.651Z,1.80
2019-06-04T08:37:35.126Z,1.90
2019-06-04T08:38:35.839Z,1.80
2019-06-04T08:39:35.227Z,1.50
2019-06-04T08:40:35.213Z,1.70
2019-06-04T08:41:33.483Z,2.00
2019-06-04T08:42:33.503Z,1.50
2019-06-04T08:43:33.519Z,2.90
2019-06-04T08:44:33.532Z,1.30
2019-06-04T08:45:33.550Z,1.50
2019-06-04T08:46:33.563Z,1.60
2019-06-04T08:47:33.600Z,2.00
2019-06-04T08:48:33.602Z,1.80
2019-06-04T08:49:33.619Z,1.30
2019-06-04T08:50:33.641Z,1.80
2019-06-04T08:51:33.656Z,1.80
2019-06-04T08:52:33.679Z,2.10
2019-06-04T08:53:33.694Z,1.40
2019-06-04T08:54:33.716Z,2.60
2019-06-04T08:55:33.731Z,1.30
2019-06-04T08:56:33.751Z,1.50
2019-06-04T08:57:33.770Z,3.30
2019-06-04T08:58:34.062Z,2.40
2019-06-04T08:59:33.812Z,1.30
2019-06-04T09:00:33.833Z,1.90
2019-06-04T09:01:33.850Z,1.40
2019-06-04T09:02:33.874Z,1.20
2019-06-04T09:03:33.892Z,1.40
2019-06-04T09:04:33.912Z,1.40
2019-06-04T09:05:33.937Z,1.50
2019-06-04T09:06:33.954Z,1.60
2019-06-04T09:07:33.974Z,1.40
2019-06-04T09:08:33.999Z,1.40
2019-06-04T09:09:34.027Z,1.30
2019-06-04T09:10:34.040Z,1.50
2019-06-04T09:11:34.060Z,1.40
2019-06-04T09:12:34.086Z,1.90
2019-06-04T09:13:34.112Z,1.30
2019-06-04T09:14:34.131Z,1.40
2019-06-04T09:15:34.148Z,1.30
2019-06-04T09:16:34.174Z,1.40
2019-06-04T09:17:34.196Z,1.20
2019-06-04T09:18:34.219Z,1.20
2019-06-04T09:19:34.248Z,1.20
2019-06-04T09:20:34.338Z,1.20
2019-06-04T09:21:34.288Z,1.20
2019-06-04T09:22:34.316Z,1.60
2019-06-04T09:23:34.332Z,1.30
2019-06-04T09:24:34.360Z,1.30
2019-06-04T09:25:34.370Z,1.20
2019-06-04T09:26:34.401Z,1.30
2019-06-04T09:27:34.417Z,1.10
2019-06-04T09:28:34.449Z,1.10
2019-06-04T09:29:34.467Z,1.50
2019-06-04T09:30:34.491Z,1.10
2019-06-04T09:31:34.516Z,1.20
2019-06-04T09:32:34.532Z,1.40
2019-06-04T09:33:34.563Z,1.20
2019-06-04T09:34:34.588Z,1.30
2019-06-04T09:35:34.605Z,1.00
2019-06-04T09:36:34.632Z,1.10
2019-06-04T09:37:47.114Z,1.00
2019-06-04T09:38:34.677Z,1.10
2019-06-04T09:39:34.718Z,1.00
2019-06-04T09:40:34.735Z,1.00
2019-06-04T09:41:34.749Z,1.00
2019-06-04T09:42:34.772Z,0.90
2019-06-04T09:43:34.799Z,0.90
2019-06-04T09:44:34.824Z,0.90
2019-06-04T09:45:34.848Z,1.10
2019-06-04T09:46:34.885Z,0.90
2019-06-04T09:47:34.901Z,1.00
2019-06-04T09:48:34.920Z,1.00
2019-06-04T09:49:34.943Z,1.10
2019-06-04T09:50:34.987Z,1.50
2019-06-04T09:51:34.990Z,1.00
2019-06-04T09:52:35.018Z,1.00
2019-06-04T09:53:35.042Z,1.00
2019-06-04T09:54:35.065Z,0.90
2019-06-04T09:55:35.092Z,0.90
2019-06-04T09:56:35.114Z,1.30
2019-06-04T09:57:35.143Z,1.50
2019-06-04T09:58:35.164Z,1.10
2019-06-04T09:59:35.189Z,1.00
2019-06-04T10:00:35.220Z,0.80
2019-06-04T10:01:35.242Z,0.80
2019-06-04T10:02:35.277Z,1.00
2019-06-04T10:03:35.294Z,1.00
2019-06-04T10:04:35.324Z,1.80
2019-06-04T10:05:35.351Z,0.90
2019-06-04T10:06:39.651Z,0.90
2019-06-04T10:07:35.396Z,0.90
2019-06-04T10:08:35.426Z,2.10
2019-06-04T10:09:35.466Z,0.90
2019-06-04T10:10:35.480Z,1.00
2019-06-04T10:11:35.499Z,1.80
2019-06-04T10:12:35.520Z,1.10
2019-06-04T10:13:35.553Z,0.90
2019-06-04T10:14:35.571Z,0.90
2019-06-04T10:15:35.601Z,2.00
2019-06-04T10:16:35.627Z,1.40
2019-06-04T10:17:35.651Z,0.90
2019-06-04T10:18:35.677Z,0.90
2019-06-04T10:19:35.699Z,1.00
2019-06-04T10:20:35.727Z,1.20
2019-06-04T10:21:35.755Z,0.90
2019-06-04T10:22:35.779Z,1.40
2019-06-04T10:23:35.803Z,1.40
2019-06-04T10:24:35.834Z,1.30
2019-06-04T10:25:35.966Z,0.90
2019-06-04T10:26:35.883Z,1.00
2019-06-04T10:27:35.908Z,1.10
2019-06-04T10:28:35.933Z,2.00
2019-06-04T10:29:35.958Z,1.00
2019-06-04T10:30:35.982Z,1.30
2019-06-04T10:31:36.021Z,0.80
2019-06-04T10:32:36.041Z,0.80
2019-06-04T10:33:36.069Z,1.20
2019-06-04T10:34:36.093Z,0.80
2019-06-04T10:35:36.129Z,1.50
2019-06-04T10:36:36.144Z,0.80
2019-06-04T10:37:36.177Z,0.90
2019-06-04T10:38:36.199Z,0.80
2019-06-04T10:39:36.223Z,1.70
2019-06-04T10:40:37.371Z,0.90
2019-06-04T10:41:36.278Z,0.90
2019-06-04T10:42:36.303Z,0.90
2019-06-04T10:43:36.333Z,0.80
2019-06-04T10:44:36.362Z,1.30
2019-06-04T10:45:36.384Z,0.90
2019-06-04T10:46:36.421Z,1.90
2019-06-04T10:47:36.487Z,1.40
2019-06-04T10:48:36.463Z,1.00
2019-06-04T10:49:36.491Z,1.10
2019-06-04T10:50:36.515Z,1.00
2019-06-04T10:51:36.546Z,1.30
2019-06-04T10:52:36.574Z,0.90
2019-06-04T10:53:36.597Z,1.00
2019-06-04T10:54:36.631Z,0.90
2019-06-04T10:55:36.653Z,1.10
2019-06-04T10:56:36.680Z,1.20
2019-06-04T10:57:36.705Z,1.00
2019-06-04T10:58:36.736Z,0.90
2019-06-04T10:59:36.759Z,0.90
2019-06-04T11:00:36.790Z,2.00
2019-06-04T11:01:36.813Z,1.00
2019-06-04T11:02:36.843Z,2.10
2019-06-04T11:03:36.867Z,0.80
2019-06-04T11:04:36.895Z,0.90
2019-06-04T11:05:36.921Z,1.00
2019-06-04T11:06:36.945Z,0.90
2019-06-04T11:07:36.976Z,1.50
2019-06-04T11:08:49.898Z,0.90
2019-06-04T11:09:37.031Z,1.00
2019-06-04T11:10:37.061Z,2.10
2019-06-04T11:11:37.083Z,0.90
2019-06-04T11:12:37.115Z,1.00
2019-06-04T11:13:37.138Z,0.90
2019-06-04T11:14:37.169Z,1.20
2019-06-04T11:15:37.192Z,1.00
2019-06-04T11:16:37.218Z,1.30
2019-06-04T11:17:37.251Z,1.00
2019-06-04T11:18:37.274Z,1.10
2019-06-04T11:19:37.303Z,1.20
2019-06-04T11:20:37.337Z,1.70
2019-06-04T11:21:39.661Z,1.00
2019-06-04T11:22:37.387Z,1.20
2019-06-04T11:23:37.435Z,1.10
2019-06-04T11:24:37.440Z,1.00
2019-06-04T11:25:37.478Z,1.10
2019-06-04T11:26:37.494Z,1.10
2019-06-04T11:27:37.523Z,1.00
2019-06-04T11:28:37.557Z,2.00
2019-06-04T11:29:37.577Z,1.30
2019-06-04T11:30:37.610Z,1.00
2019-06-04T11:31:39.903Z,1.40
2019-06-04T11:32:37.665Z,1.20
2019-06-04T11:33:37.686Z,1.00
2019-06-04T11:34:37.712Z,1.50
2019-06-04T11:35:37.740Z,1.20
2019-06-04T11:36:37.763Z,1.20
2019-06-04T11:37:37.791Z,1.50
2019-06-04T11:38:37.816Z,3.30
2019-06-04T11:39:37.842Z,1.80
2019-06-04T11:40:37.872Z,1.60
2019-06-04T11:41:37.884Z,1.40
2019-06-04T11:42:37.913Z,1.80
2019-06-04T11:43:37.934Z,1.80
2019-06-04T11:44:37.955Z,4.20
2019-06-04T11:45:37.979Z,1.50
2019-06-04T11:46:38.061Z,1.70
2019-06-04T11:47:38.026Z,1.70
2019-06-04T11:48:38.041Z,1.80
2019-06-04T11:49:38.069Z,1.60
2019-06-04T11:50:38.096Z,1.40
2019-06-04T11:51:38.115Z,1.80
2019-06-04T11:52:38.131Z,1.80
2019-06-04T11:53:38.157Z,1.70
2019-06-04T11:54:38.171Z,1.80
2019-06-04T11:55:38.187Z,1.60
2019-06-04T11:56:38.212Z,1.70
2019-06-04T11:57:38.231Z,1.80
2019-06-04T11:58:38.253Z,2.30
2019-06-04T11:59:38.275Z,1.90
2019-06-04T12:00:38.285Z,5.60
2019-06-04T12:01:38.305Z,4.20
2019-06-04T12:02:38.331Z,2.90
2019-06-04T12:03:38.344Z,2.00
2019-06-04T12:04:38.369Z,1.90
2019-06-04T12:05:38.381Z,1.90
2019-06-04T12:06:38.403Z,2.40
2019-06-04T12:07:38.441Z,1.90
2019-06-04T12:08:38.446Z,1.90
2019-06-04T12:09:38.511Z,1.70
2019-06-04T12:10:38.479Z,1.70
2019-06-04T12:11:38.493Z,1.60
2019-06-04T12:12:43.946Z,1.70
2019-06-04T12:13:38.531Z,1.80
2019-06-04T12:14:38.556Z,2.20
2019-06-04T12:15:38.574Z,2.50
2019-06-04T12:16:38.589Z,1.40
2019-06-04T12:17:38.610Z,1.50
2019-06-04T12:18:38.628Z,1.50
2019-06-04T12:19:38.658Z,1.80
2019-06-04T12:20:38.675Z,1.60
2019-06-04T12:21:38.694Z,4.60
2019-06-04T12:23:24.137Z,1.70
2019-06-04T12:23:38.728Z,1.30
2019-06-04T12:24:38.742Z,1.10
2019-06-04T12:25:38.830Z,1.60
2019-06-04T12:26:38.785Z,1.70
2019-06-04T12:27:38.798Z,2.70
2019-06-04T12:28:38.822Z,1.70
2019-06-04T12:29:38.850Z,1.60
2019-06-04T12:30:38.859Z,2.50
2019-06-04T12:31:38.874Z,1.50
2019-06-04T12:32:38.894Z,2.10
2019-06-04T12:33:38.907Z,1.50
2019-06-04T12:34:38.927Z,1.40
2019-06-04T12:35:38.944Z,2.10
2019-06-04T12:36:38.960Z,1.80
2019-06-04T12:37:38.986Z,2.30
2019-06-04T12:38:38.998Z,1.70
2019-06-04T12:39:50.625Z,1.70
2019-06-04T12:40:39.029Z,1.80
2019-06-04T12:41:39.046Z,1.40
2019-06-04T12:42:39.072Z,2.00
2019-06-04T12:43:39.090Z,1.50
2019-06-04T12:44:39.100Z,3.00
2019-06-04T12:45:39.127Z,1.80
2019-06-04T12:46:39.131Z,2.00
2019-06-04T12:47:39.150Z,1.70
2019-06-04T12:48:39.175Z,1.60
2019-06-04T12:49:49.622Z,2.80
2019-06-04T12:50:39.207Z,1.50
2019-06-04T12:51:39.226Z,1.60
2019-06-04T12:52:39.240Z,1.80
2019-06-04T12:53:39.345Z,1.70
2019-06-04T12:54:39.270Z,2.20
2019-06-04T12:55:39.294Z,1.70
2019-06-04T12:56:39.302Z,1.40
2019-06-04T12:57:39.323Z,1.40
2019-06-04T12:58:39.339Z,1.70
2019-06-04T12:59:39.354Z,2.10
2019-06-04T13:00:39.365Z,1.70
2019-06-04T13:01:39.395Z,1.60
2019-06-04T13:02:39.404Z,1.50
2019-06-04T13:03:39.417Z,1.80
2019-06-04T13:04:39.499Z,1.90
2019-06-04T13:05:39.446Z,2.00
2019-06-04T13:06:39.461Z,1.80
2019-06-04T13:07:39.522Z,1.70
2019-06-04T13:08:39.493Z,1.80
2019-06-04T13:09:39.523Z,3.20
2019-06-04T13:10:39.525Z,1.90
2019-06-04T13:11:39.549Z,1.60
2019-06-04T13:12:39.554Z,2.00
2019-06-04T13:13:39.573Z,2.00
2019-06-04T13:14:39.609Z,2.30
2019-06-04T13:15:39.600Z,2.10
2019-06-04T13:16:39.613Z,1.30
2019-06-04T13:17:39.641Z,1.60
2019-06-04T13:18:39.643Z,1.70